Time;durP1;ratioP1;P1;durP2;ratioP2;P2;SDS_P1;SDS_P2;PMS_P1;PMS_P2;Temp;Humidity;BMP_temperature;BMP_pressure;BME280_temperature;BME280_humidity;BME280_pressure;Samples;Min_cycle;Max_cycle;Signal;HPM_P1;HPM_P2
2022/05/11 00:00:58;;;;;;;7.30;2.03;;;;;;;;;;5070831;28;20492;-59
2022/05/11 00:03:24;;;;;;;8.02;1.85;;;;;;;;;;5070698;28;20107;-59
2022/05/11 00:05:51;;;;;;;5.43;1.83;;;;;;;;;;5070545;28;20049;-59
2022/05/11 00:08:17;;;;;;;7.45;1.75;;;;;;;;;;5069212;28;20049;-59
2022/05/11 00:10:44;;;;;;;8.35;1.92;;;;;;;;;;5070726;28;20057;-59
2022/05/11 00:13:10;;;;;;;8.15;1.70;;;;;;;;;;5070395;28;20569;-59
2022/05/11 00:15:37;;;;;;;7.28;2.05;;;;;;;;;;5070008;28;20107;-60
2022/05/11 00:18:04;;;;;;;7.57;2.00;;;;;;;;;;5070180;28;20049;-61
2022/05/11 00:20:30;;;;;;;8.60;1.67;;;;;;;;;;5070332;28;20118;-59
2022/05/11 00:22:58;;;;;;;7.88;1.85;;;;;;;;;;5070634;28;20111;-59
2022/05/11 00:25:25;;;;;;;7.20;1.60;;;;;;;;;;5070651;28;20188;-59
2022/05/11 00:27:52;;;;;;;9.35;2.15;;;;;;;;;;5069551;28;20049;-59
2022/05/11 00:30:19;;;;;;;8.40;2.00;;;;;;;;;;5070300;28;20462;-59
2022/05/11 00:32:46;;;;;;;6.68;2.28;;;;;;;;;;5069289;28;20057;-60
2022/05/11 00:35:12;;;;;;;9.27;2.15;;;;;;;;;;5069906;28;20921;-59
2022/05/11 00:37:39;;;;;;;6.47;1.67;;;;;;;;;;5069419;28;20513;-59
2022/05/11 00:40:05;;;;;;;9.27;1.83;;;;;;;;;;5069742;28;20096;-59
2022/05/11 00:42:32;;;;;;;6.85;1.80;;;;;;;;;;5070001;28;20110;-59
2022/05/11 00:44:58;;;;;;;6.97;2.08;;;;;;;;;;5070077;28;20410;-59
2022/05/11 00:47:29;;;;;;;7.18;2.00;;;;;;;;;;5069435;28;20513;-59
2022/05/11 00:49:58;;;;;;;7.90;2.00;;;;;;;;;;5070335;28;20053;-59
2022/05/11 00:52:28;;;;;;;7.30;2.13;;;;;;;;;;5070021;28;20114;-58
2022/05/11 00:54:59;;;;;;;9.50;2.38;;;;;;;;;;5070249;28;20049;-59
2022/05/11 00:57:29;;;;;;;7.93;2.20;;;;;;;;;;5068292;28;20041;-59
2022/05/11 00:59:56;;;;;;;8.20;2.33;;;;;;;;;;5070048;28;20515;-59
2022/05/11 01:02:23;;;;;;;9.65;2.15;;;;;;;;;;5070033;28;20895;-59
2022/05/11 01:04:52;;;;;;;8.15;2.10;;;;;;;;;;5069616;28;20088;-60
2022/05/11 01:07:18;;;;;;;7.93;2.25;;;;;;;;;;5069220;28;20945;-59
2022/05/11 01:09:45;;;;;;;5.95;2.00;;;;;;;;;;5069729;28;20511;-59
2022/05/11 01:12:14;;;;;;;9.10;2.47;;;;;;;;;;5070318;28;20061;-59
2022/05/11 01:14:42;;;;;;;8.95;2.38;;;;;;;;;;5069056;28;20052;-59
2022/05/11 01:17:09;;;;;;;10.00;2.20;;;;;;;;;;5069763;28;20079;-59
2022/05/11 01:19:39;;;;;;;10.20;2.70;;;;;;;;;;5068818;28;20088;-59
2022/05/11 01:22:26;;;;;;;9.55;2.08;;;;;;;;;;5069122;28;20358;-59
2022/05/11 01:24:53;;;;;;;9.20;2.28;;;;;;;;;;5069454;28;20080;-59
2022/05/11 01:27:23;;;;;;;15.15;2.65;;;;;;;;;;5069290;28;20084;-59
2022/05/11 01:29:50;;;;;;;10.07;2.70;;;;;;;;;;5068925;28;20052;-59
2022/05/11 01:32:16;;;;;;;11.15;2.45;;;;;;;;;;5069808;28;20057;-59
2022/05/11 01:34:42;;;;;;;7.57;2.58;;;;;;;;;;5068704;28;20107;-59
2022/05/11 01:37:09;;;;;;;8.30;2.40;;;;;;;;;;5069571;28;20053;-58
2022/05/11 01:39:35;;;;;;;12.30;2.88;;;;;;;;;;5069420;28;20470;-59
2022/05/11 01:42:01;;;;;;;7.72;2.50;;;;;;;;;;5068956;28;20574;-59
2022/05/11 01:44:28;;;;;;;10.70;2.40;;;;;;;;;;5069348;28;20106;-59
2022/05/11 01:46:56;;;;;;;7.25;2.20;;;;;;;;;;5067724;28;20142;-59
2022/05/11 01:49:24;;;;;;;6.97;2.17;;;;;;;;;;5069163;28;20146;-59
2022/05/11 01:51:51;;;;;;;9.63;2.67;;;;;;;;;;5069063;28;20076;-59
2022/05/11 01:54:17;;;;;;;11.55;2.80;;;;;;;;;;5068810;28;20503;-59
2022/05/11 01:56:44;;;;;;;10.40;3.25;;;;;;;;;;5069092;28;20878;-59
2022/05/11 01:59:10;;;;;;;9.15;2.47;;;;;;;;;;5069029;28;20122;-59
2022/05/11 02:01:40;;;;;;;8.23;2.38;;;;;;;;;;5069116;28;20099;-59
2022/05/11 02:07:49;;;;;;;10.65;2.60;;;;;;;;;;5067961;28;20082;-59
2022/05/11 02:09:41;;;;;;;8.68;2.50;;;;;;;;;;5048495;28;20053;-59
2022/05/11 02:12:11;;;;;;;8.60;2.38;;;;;;;;;;5048116;28;20057;-59
2022/05/11 02:14:38;;;;;;;11.23;2.85;;;;;;;;;;5058665;28;20065;-59
2022/05/11 02:17:04;;;;;;;10.25;2.75;;;;;;;;;;5069367;28;20052;-59
2022/05/11 02:19:31;;;;;;;12.48;2.65;;;;;;;;;;5067417;28;20057;-59
2022/05/11 02:21:57;;;;;;;9.50;2.65;;;;;;;;;;5067864;28;20162;-59
2022/05/11 02:24:24;;;;;;;10.40;2.80;;;;;;;;;;5068617;28;20605;-59
2022/05/11 02:26:50;;;;;;;10.85;2.88;;;;;;;;;;5068346;28;20053;-59
2022/05/11 02:29:16;;;;;;;8.43;2.63;;;;;;;;;;5068521;28;20053;-59
2022/05/11 02:31:43;;;;;;;9.40;2.60;;;;;;;;;;5067921;28;20041;-59
2022/05/11 02:35:12;;;;;;;11.60;3.03;;;;;;;;;;5068578;28;20068;-59
2022/05/11 02:36:55;;;;;;;7.53;2.20;;;;;;;;;;5067355;28;20053;-59
2022/05/11 02:39:22;;;;;;;9.07;2.40;;;;;;;;;;5068183;28;20111;-59
2022/05/11 02:41:48;;;;;;;9.25;2.60;;;;;;;;;;5068036;28;20061;-59
2022/05/11 02:44:15;;;;;;;12.55;3.15;;;;;;;;;;5068632;28;20049;-59
2022/05/11 02:46:41;;;;;;;10.38;2.78;;;;;;;;;;5068099;28;20502;-59
2022/05/11 02:49:08;;;;;;;6.82;2.35;;;;;;;;;;5067751;28;20553;-59
2022/05/11 02:51:34;;;;;;;12.50;2.60;;;;;;;;;;5067680;28;20895;-59
2022/05/11 02:54:00;;;;;;;8.25;2.88;;;;;;;;;;5067915;28;20523;-59
2022/05/11 02:56:27;;;;;;;9.00;2.10;;;;;;;;;;5067186;28;20084;-59
2022/05/11 02:58:53;;;;;;;11.57;2.88;;;;;;;;;;5067596;28;20053;-59
2022/05/11 03:01:19;;;;;;;11.40;2.53;;;;;;;;;;5067405;28;20111;-59
2022/05/11 03:03:46;;;;;;;12.07;2.50;;;;;;;;;;5068107;28;20052;-59
2022/05/11 03:06:12;;;;;;;8.27;2.10;;;;;;;;;;5067896;28;20056;-59
2022/05/11 03:08:38;;;;;;;6.10;1.90;;;;;;;;;;5067116;28;20053;-59
2022/05/11 03:11:05;;;;;;;8.73;2.25;;;;;;;;;;5068290;28;20106;-58
2022/05/11 03:13:32;;;;;;;9.60;1.95;;;;;;;;;;5067697;28;20139;-59
2022/05/11 03:15:58;;;;;;;5.82;2.05;;;;;;;;;;5067372;28;20049;-59
2022/05/11 03:18:25;;;;;;;8.23;2.30;;;;;;;;;;5067988;28;20195;-59
2022/05/11 03:20:54;;;;;;;7.03;1.95;;;;;;;;;;5067697;28;20053;-59
2022/05/11 03:23:20;;;;;;;4.95;1.77;;;;;;;;;;5067754;28;20084;-59
2022/05/11 03:25:47;;;;;;;6.28;2.17;;;;;;;;;;5066973;28;20130;-59
2022/05/11 03:28:13;;;;;;;8.25;2.40;;;;;;;;;;5067175;28;20092;-59
2022/05/11 03:30:39;;;;;;;6.63;1.92;;;;;;;;;;5067630;28;20872;-59
2022/05/11 03:35:51;;;;;;;8.93;1.98;;;;;;;;;;5066941;28;20499;-59
2022/05/11 03:38:17;;;;;;;4.95;1.60;;;;;;;;;;5066307;28;20052;-59
2022/05/11 03:40:43;;;;;;;8.30;2.03;;;;;;;;;;5067423;28;20057;-59
2022/05/11 03:43:10;;;;;;;8.13;1.60;;;;;;;;;;5067586;28;20182;-59
2022/05/11 03:45:36;;;;;;;7.85;1.80;;;;;;;;;;5067412;28;20049;-59
2022/05/11 03:48:03;;;;;;;4.68;1.50;;;;;;;;;;5052389;28;20482;-59
2022/05/11 03:50:29;;;;;;;5.18;1.33;;;;;;;;;;5066893;28;20340;-59
2022/05/11 03:52:56;;;;;;;5.50;1.60;;;;;;;;;;5067484;28;20057;-59
2022/05/11 03:55:23;;;;;;;8.15;1.65;;;;;;;;;;5067663;28;20080;-59
2022/05/11 03:57:49;;;;;;;4.85;1.27;;;;;;;;;;5066748;28;20073;-58
2022/05/11 04:00:21;;;;;;;5.20;1.48;;;;;;;;;;5067895;28;20092;-58
2022/05/11 04:02:51;;;;;;;6.18;1.30;;;;;;;;;;5066277;28;20523;-58
2022/05/11 04:05:18;;;;;;;7.63;1.60;;;;;;;;;;5067120;28;20060;-58
2022/05/11 04:07:45;;;;;;;4.63;1.67;;;;;;;;;;5066966;28;20053;-60
2022/05/11 04:10:12;;;;;;;6.75;1.35;;;;;;;;;;5067325;28;20131;-59
2022/05/11 04:12:39;;;;;;;6.13;1.47;;;;;;;;;;5066551;28;20057;-59
2022/05/11 04:15:06;;;;;;;8.07;1.48;;;;;;;;;;5066357;28;20142;-59
2022/05/11 04:17:33;;;;;;;5.03;1.60;;;;;;;;;;5066098;28;20144;-59
2022/05/11 04:19:59;;;;;;;7.28;1.40;;;;;;;;;;5067490;28;20379;-60
2022/05/11 04:22:25;;;;;;;6.55;1.55;;;;;;;;;;5066832;28;20499;-59
2022/05/11 04:24:52;;;;;;;6.40;1.35;;;;;;;;;;5066860;28;20084;-59
2022/05/11 04:27:18;;;;;;;7.05;1.50;;;;;;;;;;5067223;28;20106;-59
2022/05/11 04:29:44;;;;;;;6.30;1.58;;;;;;;;;;5066656;28;20827;-59
2022/05/11 04:32:11;;;;;;;4.88;1.50;;;;;;;;;;5066442;28;20901;-59
2022/05/11 04:34:39;;;;;;;4.40;1.02;;;;;;;;;;5066617;28;20076;-59
2022/05/11 04:37:05;;;;;;;8.40;1.30;;;;;;;;;;5066118;28;20056;-60
2022/05/11 04:39:31;;;;;;;6.97;1.40;;;;;;;;;;5066470;28;20166;-59
2022/05/11 04:41:58;;;;;;;4.43;1.17;;;;;;;;;;5065728;28;20057;-60
2022/05/11 04:44:24;;;;;;;7.00;1.63;;;;;;;;;;5068097;28;20057;-59
2022/05/11 04:46:56;;;;;;;6.85;1.25;;;;;;;;;;5069819;28;20500;-60
2022/05/11 04:49:23;;;;;;;8.18;1.50;;;;;;;;;;5070387;28;20100;-59
2022/05/11 04:51:51;;;;;;;4.97;1.17;;;;;;;;;;5070286;28;20584;-59
2022/05/11 04:54:18;;;;;;;3.63;1.23;;;;;;;;;;5069980;28;20525;-59
2022/05/11 04:56:44;;;;;;;6.45;1.52;;;;;;;;;;5068961;28;20056;-59
2022/05/11 04:59:12;;;;;;;5.50;1.30;;;;;;;;;;5069617;28;20142;-59
2022/05/11 05:01:39;;;;;;;4.25;1.10;;;;;;;;;;5069857;28;20147;-59
2022/05/11 05:04:05;;;;;;;8.15;1.98;;;;;;;;;;5068331;28;20142;-59
2022/05/11 05:06:34;;;;;;;6.57;1.73;;;;;;;;;;5069752;28;20616;-59
2022/05/11 05:09:02;;;;;;;5.03;1.30;;;;;;;;;;5069880;28;20053;-59
2022/05/11 05:11:28;;;;;;;5.50;1.10;;;;;;;;;;5069716;28;20053;-60
2022/05/11 05:13:54;;;;;;;5.78;1.20;;;;;;;;;;5069683;28;20080;-59
2022/05/11 05:16:21;;;;;;;5.00;1.10;;;;;;;;;;5070156;28;20089;-59
2022/05/11 05:18:47;;;;;;;6.93;1.50;;;;;;;;;;5068835;28;20092;-59
2022/05/11 05:21:14;;;;;;;5.65;1.30;;;;;;;;;;5069794;28;20091;-59
2022/05/11 05:23:40;;;;;;;8.70;1.48;;;;;;;;;;5069836;28;20057;-59
2022/05/11 05:26:07;;;;;;;7.10;1.42;;;;;;;;;;5069498;28;20107;-59
2022/05/11 05:31:21;;;;;;;9.73;1.90;;;;;;;;;;5069124;28;20512;-59
2022/05/11 05:33:49;;;;;;;5.15;1.25;;;;;;;;;;5069562;28;20048;-59
2022/05/11 05:36:15;;;;;;;7.75;1.95;;;;;;;;;;5069228;28;20503;-59
2022/05/11 05:38:42;;;;;;;4.55;1.05;;;;;;;;;;5068090;28;20474;-59
2022/05/11 05:41:10;;;;;;;6.47;1.48;;;;;;;;;;5069000;28;20447;-59
2022/05/11 05:43:37;;;;;;;8.13;1.42;;;;;;;;;;5068951;28;20107;-59
2022/05/11 05:46:03;;;;;;;5.20;1.10;;;;;;;;;;5069687;28;20545;-59
2022/05/11 05:48:30;;;;;;;5.57;1.25;;;;;;;;;;5068901;28;20144;-60
2022/05/11 05:51:07;;;;;;;5.78;1.08;;;;;;;;;;5069349;28;20053;-60
2022/05/11 05:53:34;;;;;;;7.25;1.52;;;;;;;;;;5067989;28;20065;-59
2022/05/11 05:56:01;;;;;;;7.30;1.85;;;;;;;;;;5048420;28;20147;-59
2022/05/11 05:58:27;;;;;;;5.22;1.20;;;;;;;;;;5049177;28;20062;-59
2022/05/11 06:00:54;;;;;;;7.60;1.10;;;;;;;;;;5053803;28;20492;-59
2022/05/11 06:03:21;;;;;;;6.72;1.13;;;;;;;;;;5068740;28;20138;-59
2022/05/11 06:05:48;;;;;;;9.38;1.42;;;;;;;;;;5068004;28;20071;-59
2022/05/11 06:08:17;;;;;;;6.75;1.20;;;;;;;;;;5068196;28;20102;-59
2022/05/11 06:10:44;;;;;;;5.97;1.40;;;;;;;;;;5068371;28;20541;-59
2022/05/11 06:13:12;;;;;;;8.18;1.55;;;;;;;;;;5068756;28;20110;-59
2022/05/11 06:15:39;;;;;;;5.95;1.27;;;;;;;;;;5068956;28;20088;-60
2022/05/11 06:18:09;;;;;;;6.15;1.00;;;;;;;;;;5067617;28;20075;-59
2022/05/11 06:20:36;;;;;;;4.28;1.17;;;;;;;;;;5068445;28;20056;-59
2022/05/11 06:23:03;;;;;;;5.85;1.02;;;;;;;;;;5047933;28;20107;-59
2022/05/11 06:25:30;;;;;;;8.38;1.17;;;;;;;;;;5062411;28;20111;-59
2022/05/11 06:27:58;;;;;;;9.63;1.60;;;;;;;;;;5068747;28;20052;-59
2022/05/11 06:30:25;;;;;;;6.05;1.63;;;;;;;;;;5067745;28;20138;-59
2022/05/11 06:32:52;;;;;;;14.47;1.53;;;;;;;;;;5068729;28;20057;-59
2022/05/11 06:35:18;;;;;;;4.93;1.08;;;;;;;;;;5068188;28;20256;-59
2022/05/11 06:37:44;;;;;;;6.80;1.25;;;;;;;;;;5068081;28;20084;-59
2022/05/11 06:40:12;;;;;;;6.82;0.90;;;;;;;;;;5068035;28;20053;-59
2022/05/11 06:42:38;;;;;;;7.55;1.15;;;;;;;;;;5067281;28;20045;-60
2022/05/11 06:45:05;;;;;;;6.38;1.20;;;;;;;;;;5067929;28;20114;-63
2022/05/11 06:47:33;;;;;;;11.15;1.50;;;;;;;;;;5067860;28;20057;-59
2022/05/11 06:49:59;;;;;;;9.15;1.52;;;;;;;;;;5046562;28;20049;-60
2022/05/11 06:52:26;;;;;;;3.28;0.98;;;;;;;;;;5048170;28;20061;-59
2022/05/11 07:00:23;;;;;;;14.43;2.17;;;;;;;;;;5068170;28;20132;-59
2022/05/11 07:02:50;;;;;;;7.50;1.50;;;;;;;;;;5067363;28;20587;-59
2022/05/11 07:05:17;;;;;;;7.15;1.38;;;;;;;;;;5067517;28;20057;-60
2022/05/11 07:07:43;;;;;;;7.82;1.10;;;;;;;;;;5066384;28;20573;-60
2022/05/11 07:10:10;;;;;;;8.38;1.67;;;;;;;;;;5067583;28;20110;-60
2022/05/11 07:12:43;;;;;;;5.22;1.20;;;;;;;;;;5068091;28;20057;-58
2022/05/11 07:15:09;;;;;;;8.90;1.30;;;;;;;;;;5066366;28;20107;-58
2022/05/11 07:17:40;;;;;;;6.85;1.10;;;;;;;;;;5067963;28;20111;-59
2022/05/11 07:20:15;;;;;;;6.88;1.50;;;;;;;;;;5067572;28;20061;-59
2022/05/11 07:22:41;;;;;;;5.10;1.42;;;;;;;;;;5061988;28;20644;-59
2022/05/11 07:25:09;;;;;;;8.60;1.85;;;;;;;;;;5067925;28;20053;-59
2022/05/11 07:27:36;;;;;;;6.28;1.50;;;;;;;;;;5067414;28;20107;-59
2022/05/11 07:30:04;;;;;;;4.13;1.13;;;;;;;;;;5067753;28;20217;-59
2022/05/11 07:32:30;;;;;;;9.38;1.75;;;;;;;;;;5067403;28;20064;-58
2022/05/11 07:34:57;;;;;;;3.78;0.90;;;;;;;;;;5067757;28;20395;-59
2022/05/11 07:37:23;;;;;;;8.65;1.77;;;;;;;;;;5067425;28;20057;-58
2022/05/11 07:39:49;;;;;;;11.90;1.30;;;;;;;;;;5066950;28;20136;-58
2022/05/11 07:42:16;;;;;;;6.28;1.30;;;;;;;;;;5067363;28;20140;-58
2022/05/11 07:44:43;;;;;;;6.20;1.10;;;;;;;;;;5067131;28;20060;-59
2022/05/11 07:47:12;;;;;;;7.55;1.20;;;;;;;;;;5066077;28;20061;-59
2022/05/11 07:49:39;;;;;;;4.40;0.80;;;;;;;;;;5066340;28;20080;-58
2022/05/11 07:52:05;;;;;;;6.38;1.13;;;;;;;;;;5066528;28;20910;-58
2022/05/11 07:54:32;;;;;;;4.18;1.10;;;;;;;;;;5067458;28;20110;-59
2022/05/11 07:59:52;;;;;;;5.90;1.30;;;;;;;;;;5066812;28;20095;-59
2022/05/11 08:02:19;;;;;;;5.15;1.20;;;;;;;;;;5067156;28;20088;-58
2022/05/11 08:04:45;;;;;;;8.85;1.83;;;;;;;;;;5066427;28;20119;-59
2022/05/11 08:07:13;;;;;;;5.53;1.00;;;;;;;;;;5068155;28;20052;-59
2022/05/11 08:09:40;;;;;;;5.55;1.33;;;;;;;;;;5066981;28;20127;-59
2022/05/11 08:12:07;;;;;;;6.30;1.25;;;;;;;;;;5067050;28;20057;-59
2022/05/11 08:14:33;;;;;;;5.30;1.05;;;;;;;;;;5066643;28;20052;-59
2022/05/11 08:17:00;;;;;;;7.57;1.17;;;;;;;;;;5067052;28;20049;-59
2022/05/11 08:19:26;;;;;;;6.28;1.30;;;;;;;;;;5068071;28;20545;-59
2022/05/11 08:21:54;;;;;;;6.30;1.20;;;;;;;;;;5069436;28;20079;-59
2022/05/11 08:24:21;;;;;;;6.65;1.10;;;;;;;;;;5070450;28;20158;-59
2022/05/11 08:26:50;;;;;;;7.18;1.10;;;;;;;;;;5070453;28;20061;-59
2022/05/11 08:34:49;;;;;;;4.05;1.00;;;;;;;;;;5069495;28;20123;-58
2022/05/11 08:37:15;;;;;;;4.85;1.10;;;;;;;;;;5069660;28;20057;-58
2022/05/11 08:39:42;;;;;;;5.55;0.98;;;;;;;;;;5070117;28;20119;-59
2022/05/11 08:42:08;;;;;;;8.82;1.33;;;;;;;;;;5069647;28;20053;-58
2022/05/11 08:44:36;;;;;;;6.35;1.30;;;;;;;;;;5070275;28;20138;-58
2022/05/11 08:47:13;;;;;;;9.52;1.33;;;;;;;;;;5068633;28;20053;-59
2022/05/11 08:49:48;;;;;;;7.78;1.30;;;;;;;;;;5069608;28;20082;-59
2022/05/11 08:52:36;;;;;;;6.72;1.30;;;;;;;;;;5070010;28;20063;-59
2022/05/11 08:55:08;;;;;;;5.20;1.27;;;;;;;;;;5070047;28;20049;-59
2022/05/11 08:57:36;;;;;;;4.88;1.13;;;;;;;;;;5069564;28;20098;-60
2022/05/11 09:00:07;;;;;;;6.30;1.50;;;;;;;;;;5069944;28;20061;-60
2022/05/11 09:02:43;;;;;;;6.88;1.92;;;;;;;;;;5069564;28;20053;-60
2022/05/11 09:05:12;;;;;;;7.82;1.52;;;;;;;;;;5069882;28;20891;-60
2022/05/11 09:07:40;;;;;;;8.35;1.00;;;;;;;;;;5069116;28;20049;-59
2022/05/11 09:10:07;;;;;;;;;;;;;;;;;;5070157;28;20103;-60
2022/05/11 09:12:34;;;;;;;4.20;0.90;;;;;;;;;;5067975;28;43651;-60
2022/05/11 09:15:03;;;;;;;4.82;1.00;;;;;;;;;;5069137;28;20077;-60
2022/05/11 09:17:29;;;;;;;7.68;1.10;;;;;;;;;;5069218;28;20125;-60
2022/05/11 09:20:07;;;;;;;4.90;1.00;;;;;;;;;;5069144;28;21300;-60
2022/05/11 09:22:35;;;;;;;8.30;1.73;;;;;;;;;;5069805;28;20056;-60
2022/05/11 09:25:04;;;;;;;5.55;1.10;;;;;;;;;;5069225;28;20926;-60
2022/05/11 09:27:35;;;;;;;5.80;1.13;;;;;;;;;;5069102;28;20057;-63
2022/05/11 09:30:03;;;;;;;8.80;1.38;;;;;;;;;;5057679;28;20493;-59
2022/05/11 09:32:35;;;;;;;7.68;1.10;;;;;;;;;;5069288;28;20053;-60
2022/05/11 09:35:14;;;;;;;5.68;1.25;;;;;;;;;;5069782;28;20139;-60
2022/05/11 09:37:42;;;;;;;4.93;1.02;;;;;;;;;;5068554;28;20057;-60
2022/05/11 09:40:20;;;;;;;5.53;0.98;;;;;;;;;;5068423;28;20060;-60
2022/05/11 09:42:59;;;;;;;4.93;1.38;;;;;;;;;;5069045;28;20064;-62
2022/05/11 09:45:34;;;;;;;7.43;1.52;;;;;;;;;;5068904;28;20061;-59
2022/05/11 09:48:07;;;;;;;5.07;1.05;;;;;;;;;;5068200;28;20584;-59
2022/05/11 09:50:34;;;;;;;7.28;1.48;;;;;;;;;;5068663;28;20063;-60
2022/05/11 09:53:09;;;;;;;8.07;1.13;;;;;;;;;;5068384;28;20060;-60
2022/05/11 09:55:36;;;;;;;5.70;1.20;;;;;;;;;;5068865;28;20057;-59
2022/05/11 09:58:06;;;;;;;9.32;1.48;;;;;;;;;;5069501;28;20056;-60
2022/05/11 10:00:40;;;;;;;5.10;1.00;;;;;;;;;;5069543;28;20073;-59
2022/05/11 10:03:12;;;;;;;8.05;2.17;;;;;;;;;;5068136;28;20045;-60
2022/05/11 10:05:44;;;;;;;10.95;1.90;;;;;;;;;;5068324;28;20107;-59
2022/05/11 10:08:19;;;;;;;6.28;1.20;;;;;;;;;;5068424;28;20061;-59
2022/05/11 10:10:59;;;;;;;12.40;1.30;;;;;;;;;;5068445;28;20052;-60
2022/05/11 10:13:30;;;;;;;6.93;1.52;;;;;;;;;;5068350;28;20114;-60
2022/05/11 10:21:56;;;;;;;9.63;1.90;;;;;;;;;;5069232;28;20057;-60
2022/05/11 10:24:41;;;;;;;9.65;1.70;;;;;;;;;;5068335;28;20087;-59
2022/05/11 10:27:27;;;;;;;11.90;2.47;;;;;;;;;;5055727;28;20111;-59
2022/05/11 10:30:11;;;;;;;7.43;1.58;;;;;;;;;;5066896;28;20069;-60
2022/05/11 10:32:44;;;;;;;6.70;1.40;;;;;;;;;;5068078;28;20064;-61
2022/05/11 10:35:10;;;;;;;7.72;1.52;;;;;;;;;;5068285;28;20110;-60
2022/05/11 10:37:56;;;;;;;8.32;1.73;;;;;;;;;;5068939;28;20057;-60
2022/05/11 10:40:25;;;;;;;12.80;1.83;;;;;;;;;;5067717;28;20511;-60
2022/05/11 10:43:09;;;;;;;15.43;2.50;;;;;;;;;;5068610;28;20049;-60
2022/05/11 10:45:45;;;;;;;14.18;2.50;;;;;;;;;;5067647;28;20167;-60
2022/05/11 10:48:17;;;;;;;11.85;2.22;;;;;;;;;;5064338;28;20507;-60
2022/05/11 10:50:43;;;;;;;7.10;1.70;;;;;;;;;;5068163;28;20435;-60
2022/05/11 10:53:19;;;;;;;14.70;2.58;;;;;;;;;;5067487;28;20052;-60
2022/05/11 10:55:53;;;;;;;6.32;1.60;;;;;;;;;;5046843;28;20080;-60
2022/05/11 10:58:38;;;;;;;10.23;2.20;;;;;;;;;;5066157;28;20057;-60
2022/05/11 11:01:09;;;;;;;10.13;2.22;;;;;;;;;;5068046;28;20970;-60
2022/05/11 11:03:46;;;;;;;7.45;1.63;;;;;;;;;;5067040;28;20577;-60
2022/05/11 11:09:15;;;;;;;7.75;1.77;;;;;;;;;;5068357;28;20119;-60
2022/05/11 11:11:47;;;;;;;11.82;1.85;;;;;;;;;;5067345;28;20118;-60
2022/05/11 11:14:17;;;;;;;13.23;2.10;;;;;;;;;;5066228;28;20127;-60
2022/05/11 11:17:04;;;;;;;9.27;2.08;;;;;;;;;;5067889;28;20056;-60
2022/05/11 11:19:32;;;;;;;10.18;1.95;;;;;;;;;;5067498;28;20114;-60
2022/05/11 11:22:00;;;;;;;12.95;2.60;;;;;;;;;;5067538;28;20103;-60
2022/05/11 11:24:27;;;;;;;8.35;1.60;;;;;;;;;;5065722;28;20057;-60
2022/05/11 11:26:57;;;;;;;29.60;2.70;;;;;;;;;;5067001;28;20119;-60
2022/05/11 11:29:24;;;;;;;8.88;1.75;;;;;;;;;;5068169;28;20159;-60
2022/05/11 11:32:01;;;;;;;10.32;1.70;;;;;;;;;;5066472;28;20088;-60
2022/05/11 11:34:31;;;;;;;10.30;1.85;;;;;;;;;;5067194;28;20059;-60
2022/05/11 11:37:21;;;;;;;6.82;1.67;;;;;;;;;;5067547;28;20077;-60
2022/05/11 11:40:10;;;;;;;8.40;1.60;;;;;;;;;;5067202;28;20523;-60
2022/05/11 11:42:38;;;;;;;5.65;1.13;;;;;;;;;;5056358;28;20486;-60
2022/05/11 11:45:09;;;;;;;8.07;1.27;;;;;;;;;;5066972;28;20060;-60
2022/05/11 11:47:38;;;;;;;7.65;1.20;;;;;;;;;;5065587;28;20095;-60
2022/05/11 11:50:09;;;;;;;6.07;1.50;;;;;;;;;;5066108;28;20053;-60
2022/05/11 11:52:40;;;;;;;9.55;1.85;;;;;;;;;;5065668;28;20180;-60
2022/05/11 11:55:08;;;;;;;6.88;1.20;;;;;;;;;;5068064;28;20107;-60
2022/05/11 11:57:35;;;;;;;4.70;1.00;;;;;;;;;;5069848;28;20466;-60
2022/05/11 12:00:05;;;;;;;6.13;1.05;;;;;;;;;;5068550;28;20060;-60
2022/05/11 12:02:37;;;;;;;5.80;1.42;;;;;;;;;;5078771;28;20628;-60
2022/05/11 12:05:12;;;;;;;7.20;1.15;;;;;;;;;;5069506;28;20060;-60
2022/05/11 12:16:14;;;;;;;5.63;1.95;;;;;;;;;;5066206;28;20084;-60
2022/05/11 12:18:42;;;;;;;6.60;1.30;;;;;;;;;;5068232;28;20057;-60
2022/05/11 12:21:22;;;;;;;6.38;1.20;;;;;;;;;;5070560;28;20107;-60
2022/05/11 12:23:49;;;;;;;11.10;1.20;;;;;;;;;;5074343;28;20573;-60
2022/05/11 12:26:20;;;;;;;8.75;1.42;;;;;;;;;;5069039;28;20053;-60
2022/05/11 12:28:47;;;;;;;5.25;1.30;;;;;;;;;;5051741;28;20054;-60
2022/05/11 12:31:29;;;;;;;5.43;1.25;;;;;;;;;;5069221;28;20052;-60
2022/05/11 12:33:55;;;;;;;11.35;1.40;;;;;;;;;;5069199;28;20077;-60
2022/05/11 12:36:32;;;;;;;7.55;1.45;;;;;;;;;;5069219;28;20068;-60
2022/05/11 12:39:00;;;;;;;6.20;1.35;;;;;;;;;;5069034;28;20053;-60
2022/05/11 12:41:27;;;;;;;;;;;;;;;;;;5074093;28;20091;-60
2022/05/11 12:43:57;;;;;;;6.70;1.30;;;;;;;;;;5068926;28;44065;-60
2022/05/11 12:46:25;;;;;;;4.40;1.20;;;;;;;;;;5068673;28;20111;-61
2022/05/11 12:48:54;;;;;;;10.60;1.67;;;;;;;;;;5031938;28;1046750;-61
2022/05/11 12:51:26;;;;;;;15.05;1.90;;;;;;;;;;5070109;28;20049;-61
2022/05/11 12:53:56;;;;;;;6.68;1.13;;;;;;;;;;5070443;28;20077;-61
2022/05/11 12:56:27;;;;;;;9.82;1.40;;;;;;;;;;5070308;28;20053;-61
2022/05/11 12:59:01;;;;;;;11.48;1.50;;;;;;;;;;5070071;28;20049;-61
2022/05/11 13:01:30;;;;;;;6.50;1.55;;;;;;;;;;5070137;28;20057;-61
2022/05/11 13:03:58;;;;;;;5.97;1.35;;;;;;;;;;5069134;28;20893;-61
2022/05/11 13:06:33;;;;;;;10.93;1.77;;;;;;;;;;5069145;28;20418;-61
2022/05/11 13:09:11;;;;;;;6.03;1.45;;;;;;;;;;5069466;28;20049;-61
2022/05/11 13:11:37;;;;;;;8.73;1.73;;;;;;;;;;5069274;28;20057;-61
2022/05/11 13:14:10;;;;;;;7.05;1.83;;;;;;;;;;5069454;28;20049;-61
2022/05/11 13:16:36;;;;;;;8.35;2.25;;;;;;;;;;5069330;28;20151;-61
2022/05/11 13:19:03;;;;;;;11.55;1.92;;;;;;;;;;5069554;28;20503;-61
2022/05/11 13:21:31;;;;;;;8.32;2.45;;;;;;;;;;5069522;28;20970;-65
2022/05/11 13:23:58;;;;;;;9.52;1.85;;;;;;;;;;5069771;28;20546;-61
2022/05/11 13:26:36;;;;;;;7.45;1.95;;;;;;;;;;5069642;28;20976;-61
2022/05/11 13:29:27;;;;;;;7.93;1.90;;;;;;;;;;5069209;28;20056;-61
2022/05/11 13:32:07;;;;;;;10.02;1.95;;;;;;;;;;5069200;28;20049;-61
2022/05/11 13:34:35;;;;;;;8.15;2.20;;;;;;;;;;5069208;28;20048;-61
2022/05/11 13:37:02;;;;;;;8.75;1.60;;;;;;;;;;5069274;28;20053;-61
2022/05/11 13:39:30;;;;;;;8.57;2.23;;;;;;;;;;5069655;28;20056;-60
2022/05/11 13:41:58;;;;;;;9.18;2.40;;;;;;;;;;5068404;28;20057;-61
2022/05/11 13:44:27;;;;;;;9.95;2.53;;;;;;;;;;5069082;28;20103;-61
2022/05/11 13:49:44;;;;;;;15.93;2.75;;;;;;;;;;5068899;28;20499;-60
2022/05/11 13:52:35;;;;;;;9.15;2.70;;;;;;;;;;5068576;28;20049;-60
2022/05/11 13:55:02;;;;;;;11.98;2.03;;;;;;;;;;5067888;28;20057;-60
2022/05/11 13:57:33;;;;;;;11.57;2.72;;;;;;;;;;5068730;28;20111;-60
2022/05/11 14:00:16;;;;;;;12.50;2.30;;;;;;;;;;5068859;28;20104;-61
2022/05/11 14:02:47;;;;;;;13.38;2.22;;;;;;;;;;5068138;28;20131;-60
2022/05/11 14:05:14;;;;;;;11.93;2.55;;;;;;;;;;5068561;28;20057;-61
2022/05/11 14:07:42;;;;;;;10.70;2.00;;;;;;;;;;5069025;28;20470;-61
2022/05/11 14:10:09;;;;;;;13.30;2.38;;;;;;;;;;5068514;28;20061;-60
2022/05/11 14:12:36;;;;;;;;;;;;;;;;;;5069032;28;20061;-61
2022/05/11 14:15:03;;;;;;;14.48;2.50;;;;;;;;;;5068189;28;43489;-64
2022/05/11 14:17:33;;;;;;;14.48;2.50;;;;;;;;;;5067858;28;20057;-60
2022/05/11 14:20:00;;;;;;;10.82;3.13;;;;;;;;;;5068529;28;20048;-60
2022/05/11 14:22:27;;;;;;;10.13;2.72;;;;;;;;;;5068131;28;20103;-61
2022/05/11 14:24:53;;;;;;;10.77;3.33;;;;;;;;;;5068421;28;20061;-60
2022/05/11 14:27:20;;;;;;;12.38;2.60;;;;;;;;;;5068768;28;20052;-60
2022/05/11 14:29:48;;;;;;;11.93;2.80;;;;;;;;;;5068815;28;20134;-60
2022/05/11 14:32:14;;;;;;;;;;;;;;;;;;5068856;28;20103;-61
2022/05/11 14:34:41;;;;;;;11.25;3.00;;;;;;;;;;5067200;28;45792;-60
2022/05/11 14:37:08;;;;;;;9.05;2.63;;;;;;;;;;5068082;28;20142;-60
2022/05/11 14:39:35;;;;;;;7.25;2.28;;;;;;;;;;5068391;28;20134;-60
2022/05/11 14:42:01;;;;;;;11.13;3.33;;;;;;;;;;5067753;28;20119;-60
2022/05/11 14:44:27;;;;;;;12.82;2.13;;;;;;;;;;5067138;28;20118;-60
2022/05/11 14:47:14;;;;;;;9.60;2.50;;;;;;;;;;5068167;28;20152;-60
2022/05/11 14:49:41;;;;;;;14.15;2.40;;;;;;;;;;5067879;28;20087;-60
2022/05/11 14:52:07;;;;;;;12.13;2.60;;;;;;;;;;5068172;28;20106;-60
2022/05/11 14:54:33;;;;;;;11.57;2.20;;;;;;;;;;5068203;28;20037;-61
2022/05/11 15:02:34;;;;;;;8.43;2.85;;;;;;;;;;5067573;28;20053;-60
2022/05/11 15:05:07;;;;;;;8.10;2.13;;;;;;;;;;5067387;28;20057;-61
2022/05/11 15:07:34;;;;;;;11.10;2.45;;;;;;;;;;5067700;28;20127;-60
2022/05/11 15:10:01;;;;;;;8.18;2.15;;;;;;;;;;5067019;28;20083;-60
2022/05/11 15:15:12;;;;;;;10.90;2.53;;;;;;;;;;5067291;28;20103;-61
2022/05/11 15:17:39;;;;;;;12.13;2.85;;;;;;;;;;5067477;28;20519;-60
2022/05/11 15:20:15;;;;;;;16.88;2.85;;;;;;;;;;5067985;28;20057;-60
2022/05/11 15:22:43;;;;;;;11.25;2.58;;;;;;;;;;5067049;28;20049;-61
2022/05/11 15:25:11;;;;;;;13.13;2.58;;;;;;;;;;5067558;28;20499;-60
2022/05/11 15:27:39;;;;;;;12.00;2.50;;;;;;;;;;5068046;28;20060;-60
2022/05/11 15:30:06;;;;;;;8.38;1.80;;;;;;;;;;5066762;28;20083;-60
2022/05/11 15:32:33;;;;;;;13.52;3.25;;;;;;;;;;5067985;28;20061;-61
2022/05/11 15:34:59;;;;;;;11.95;2.10;;;;;;;;;;5067216;28;20107;-61
2022/05/11 15:37:26;;;;;;;10.55;2.30;;;;;;;;;;5067355;28;20107;-60
2022/05/11 15:39:52;;;;;;;15.02;2.55;;;;;;;;;;5067431;28;20099;-60
2022/05/11 15:42:23;;;;;;;11.95;2.78;;;;;;;;;;5067585;28;20102;-60